Time;durP1;ratioP1;P1;durP2;ratioP2;P2;SDS_P1;SDS_P2;PMS_P1;PMS_P2;Temp;Humidity;BMP_temperature;BMP_pressure;BME280_temperature;BME280_humidity;BME280_pressure;Samples;Min_cycle;Max_cycle;Signal;HPM_P1;HPM_P2
2023/04/30 00:02:20;;;;;;;3.10;1.30;;;;;;;15.73;42.10;100066.35;108137;1288;21985;-61
2023/04/30 00:04:46;;;;;;;2.60;1.40;;;;;;;15.73;42.25;100065.61;108119;1281;22025;-61
2023/04/30 00:07:11;;;;;;;2.90;1.30;;;;;;;15.71;42.26;100063.58;108125;1288;22032;-63
2023/04/30 00:09:37;;;;;;;2.80;1.60;;;;;;;15.72;42.39;100065.68;108108;1288;21989;-63
2023/04/30 00:12:03;;;;;;;3.70;1.40;;;;;;;15.72;42.41;100063.02;108092;1288;21998;-63
2023/04/30 00:14:29;;;;;;;2.70;1.40;;;;;;;15.72;42.72;100061.98;108179;1288;22016;-63
2023/04/30 00:16:55;;;;;;;2.80;1.60;;;;;;;15.70;42.61;100061.52;108119;1288;22004;-62
2023/04/30 00:19:20;;;;;;;4.90;1.60;;;;;;;15.69;42.89;100060.31;108090;1288;21993;-61
2023/04/30 00:21:46;;;;;;;3.50;1.40;;;;;;;15.66;42.95;100061.31;108135;1288;21991;-61
2023/04/30 00:24:12;;;;;;;4.90;1.90;;;;;;;15.64;43.06;100058.74;108152;1288;21990;-62
2023/04/30 00:26:37;;;;;;;4.00;1.90;;;;;;;15.63;43.18;100055.60;108119;1281;21989;-60
2023/04/30 00:29:03;;;;;;;3.10;1.70;;;;;;;15.63;43.36;100052.42;108138;1288;21986;-61
2023/04/30 00:31:29;;;;;;;4.80;1.60;;;;;;;15.61;43.53;100050.70;108134;1288;22033;-62
2023/04/30 00:33:55;;;;;;;4.30;1.30;;;;;;;15.57;43.72;100048.73;108127;1288;22028;-60
2023/04/30 00:36:21;;;;;;;4.80;1.50;;;;;;;15.55;43.93;100047.06;108127;1285;22022;-61
2023/04/30 00:38:47;;;;;;;4.80;1.60;;;;;;;15.53;44.07;100047.33;108172;1288;22001;-60
2023/04/30 00:41:13;;;;;;;6.40;1.80;;;;;;;15.50;44.59;100045.46;108124;1288;21990;-62
2023/04/30 00:43:38;;;;;;;4.20;2.00;;;;;;;15.48;44.49;100044.67;108108;1288;22023;-61
2023/04/30 00:46:05;;;;;;;2.10;1.30;;;;;;;15.47;44.71;100043.30;108091;1288;22028;-61
2023/04/30 00:48:31;;;;;;;5.30;1.60;;;;;;;15.45;44.88;100044.05;108102;1288;21995;-60
2023/04/30 00:50:57;;;;;;;4.60;1.50;;;;;;;15.43;45.24;100040.43;108154;1288;21994;-62
2023/04/30 00:53:23;;;;;;;4.40;1.70;;;;;;;15.42;45.06;100037.65;108147;1288;22056;-60
2023/04/30 00:55:49;;;;;;;4.40;2.00;;;;;;;15.45;45.18;100039.80;107882;1288;21982;-61
2023/04/30 00:58:15;;;;;;;3.30;1.80;;;;;;;15.47;45.31;100041.34;108069;1288;21983;-60
2023/04/30 01:00:45;;;;;;;3.30;1.80;;;;;;;15.47;45.17;100040.09;108111;1288;21994;-60
2023/04/30 01:03:12;;;;;;;4.40;1.90;;;;;;;15.46;45.21;100039.97;108101;1288;21986;-60
2023/04/30 01:05:38;;;;;;;4.90;1.80;;;;;;;15.45;45.40;100040.00;108121;1288;21984;-62
2023/04/30 01:08:04;;;;;;;4.60;1.90;;;;;;;15.42;45.77;100041.02;108130;1288;22002;-60
2023/04/30 01:10:34;;;;;;;4.20;2.00;;;;;;;15.39;45.76;100040.95;108133;1288;22026;-61
2023/04/30 01:13:23;;;;;;;;;;;;;;;15.38;45.84;100040.98;108237;1288;21969;-60
2023/04/30 01:16:12;;;;;;;4.60;2.10;;;;;;;15.35;45.87;100038.60;108043;1288;21989;-60
2023/04/30 01:18:59;;;;;;;5.10;1.80;;;;;;;15.34;46.06;100041.48;108087;1288;21997;-60
2023/04/30 01:21:25;;;;;;;4.30;1.80;;;;;;;15.36;46.09;100040.70;107879;1288;23588;-60
2023/04/30 01:24:17;;;;;;;5.20;2.20;;;;;;;15.35;46.29;100038.81;108064;1287;23051;-61
2023/04/30 01:27:04;;;;;;;5.90;2.50;;;;;;;15.29;46.69;100039.37;108111;1288;22023;-60
2023/04/30 01:29:30;;;;;;;4.60;2.10;;;;;;;15.25;46.50;100035.97;108073;1288;21993;-60
2023/04/30 01:31:55;;;;;;;3.20;1.50;;;;;;;15.24;46.68;100036.53;107844;1288;21989;-60
2023/04/30 01:34:21;;;;;;;3.60;1.80;;;;;;;15.23;47.21;100039.96;108089;1288;22451;-60
2023/04/30 01:37:41;;;;;;;4.40;1.70;;;;;;;15.21;46.84;100037.73;108092;1288;22455;-61
2023/04/30 01:40:19;;;;;;;4.20;2.00;;;;;;;15.19;47.74;100036.91;107783;1293;21989;-60
2023/04/30 01:43:19;;;;;;;4.20;1.90;;;;;;;15.13;48.17;100035.52;108096;1288;21993;-61
2023/04/30 01:45:56;;;;;;;4.70;2.10;;;;;;;15.08;47.91;100033.23;108088;1288;22015;-61
2023/04/30 01:48:32;;;;;;;4.30;2.00;;;;;;;15.07;47.66;100027.44;108119;1288;21991;-60
2023/04/30 01:51:04;;;;;;;5.60;1.50;;;;;;;15.06;47.86;100026.96;108134;1288;21989;-60
2023/04/30 01:53:37;;;;;;;6.50;1.70;;;;;;;15.05;48.12;100025.59;108037;1288;23740;-60
2023/04/30 01:56:04;;;;;;;4.20;2.00;;;;;;;15.00;48.69;100025.39;108107;1288;21995;-60
2023/04/30 01:58:30;;;;;;;5.20;2.00;;;;;;;14.96;48.57;100025.70;108137;1288;21981;-60
2023/04/30 02:00:55;;;;;;;3.80;2.10;;;;;;;14.94;48.96;100023.67;107842;1289;21994;-61
2023/04/30 02:03:21;;;;;;;5.20;1.80;;;;;;;14.91;48.77;100020.95;107232;1289;1002980;-60
2023/04/30 02:05:47;;;;;;;4.20;2.20;;;;;;;14.91;48.96;100019.19;108005;1289;21992;-59
2023/04/30 02:08:13;;;;;;;3.90;1.90;;;;;;;14.90;48.90;100016.42;107984;1289;21987;-60
2023/04/30 02:10:39;;;;;;;3.70;2.00;;;;;;;14.86;48.81;100019.16;108085;1288;21986;-60
2023/04/30 02:13:04;;;;;;;5.50;2.10;;;;;;;14.84;48.91;100015.52;108147;1288;21990;-61
2023/04/30 02:15:30;;;;;;;2.90;1.80;;;;;;;14.83;48.92;100013.82;108154;1288;21986;-61
2023/04/30 02:17:56;;;;;;;3.70;2.10;;;;;;;14.79;49.34;100014.30;108128;1288;22031;-60
2023/04/30 02:20:22;;;;;;;4.60;1.80;;;;;;;14.75;49.70;100011.80;108130;1288;22026;-61
2023/04/30 02:22:47;;;;;;;3.60;2.10;;;;;;;14.71;49.20;100011.21;108097;1288;21985;-60
2023/04/30 02:25:13;;;;;;;5.20;2.10;;;;;;;14.67;49.56;100005.52;108064;1287;22948;-60
2023/04/30 02:27:38;;;;;;;3.20;1.80;;;;;;;14.63;49.41;100006.17;108116;1288;21990;-60
2023/04/30 02:30:05;;;;;;;5.00;2.00;;;;;;;14.61;49.47;100005.36;108114;1288;21974;-60
2023/04/30 02:32:31;;;;;;;5.00;2.10;;;;;;;14.61;49.73;100006.61;108141;1288;21997;-60
2023/04/30 02:34:57;;;;;;;6.00;2.10;;;;;;;14.61;49.64;100003.79;107875;1288;21999;-60
2023/04/30 02:37:23;;;;;;;3.90;2.20;;;;;;;14.58;49.61;99997.34;108162;1288;22028;-60
2023/04/30 02:39:48;;;;;;;5.20;1.90;;;;;;;14.55;49.53;99993.40;108171;1288;21992;-61
2023/04/30 02:42:14;;;;;;;4.40;1.90;;;;;;;14.54;49.48;99992.73;108045;1288;22158;-60
2023/04/30 02:44:40;;;;;;;5.00;2.20;;;;;;;14.54;49.70;99990.97;108014;1288;21989;-60
2023/04/30 02:47:05;;;;;;;7.10;1.80;;;;;;;14.54;49.57;99988.69;108045;1288;21995;-61
2023/04/30 02:49:31;;;;;;;3.80;1.80;;;;;;;14.54;50.04;99986.39;108031;1281;22009;-61
2023/04/30 02:51:56;;;;;;;6.00;2.00;;;;;;;14.51;50.25;99982.25;108010;1288;21988;-60
2023/04/30 02:54:22;;;;;;;3.90;1.60;;;;;;;14.48;49.93;99980.91;108029;1288;22050;-60
2023/04/30 02:56:48;;;;;;;4.60;2.80;;;;;;;14.48;50.27;99978.47;108072;1288;22055;-61
2023/04/30 02:59:13;;;;;;;5.00;2.00;;;;;;;14.45;50.00;99978.17;108169;1288;22156;-61
2023/04/30 03:01:39;;;;;;;3.80;2.20;;;;;;;14.46;49.90;99974.64;108089;1288;21986;-61
2023/04/30 03:04:07;;;;;;;4.10;2.40;;;;;;;14.45;50.15;99972.03;108038;1288;21989;-61
2023/04/30 03:06:33;;;;;;;5.10;2.10;;;;;;;14.44;50.14;99969.95;107809;1287;21991;-61
2023/04/30 03:08:59;;;;;;;4.10;1.70;;;;;;;14.41;50.18;99971.82;108082;1288;22001;-60
2023/04/30 03:11:25;;;;;;;5.00;2.30;;;;;;;14.37;50.84;99972.30;108054;1288;21992;-61
2023/04/30 03:13:51;;;;;;;5.20;2.30;;;;;;;14.34;50.51;99971.71;108037;1288;21985;-61
2023/04/30 03:16:18;;;;;;;3.80;1.60;;;;;;;14.33;50.37;99972.98;107300;1288;1003049;-62
2023/04/30 03:18:47;;;;;;;4.60;2.30;;;;;;;14.32;50.65;99976.20;108169;1288;21993;-61
2023/04/30 03:21:12;;;;;;;4.20;2.30;;;;;;;14.31;50.71;99977.46;108171;1288;23685;-61
2023/04/30 03:23:38;;;;;;;4.30;2.10;;;;;;;14.31;50.70;99982.74;108102;1288;21987;-60
2023/04/30 03:26:04;;;;;;;8.20;2.80;;;;;;;14.31;50.99;99982.21;108101;1288;21987;-60
2023/04/30 03:28:29;;;;;;;4.50;2.20;;;;;;;14.32;51.06;99982.55;108128;1288;21989;-61
2023/04/30 03:30:55;;;;;;;4.00;2.10;;;;;;;14.31;50.88;99982.92;107411;1288;1006798;-60
2023/04/30 03:33:21;;;;;;;5.30;2.00;;;;;;;14.31;50.54;99980.79;108137;1288;22025;-60
2023/04/30 03:35:46;;;;;;;4.70;1.90;;;;;;;14.34;50.75;99982.48;108093;1288;22099;-60
2023/04/30 03:38:12;;;;;;;5.10;2.10;;;;;;;14.36;50.82;99986.64;108141;1288;21988;-61
2023/04/30 03:40:37;;;;;;;5.90;1.90;;;;;;;14.37;50.87;99988.53;108079;1288;21989;-62
2023/04/30 03:43:04;;;;;;;8.30;2.50;;;;;;;14.41;51.35;99983.96;106616;1288;1002361;-60
2023/04/30 03:45:30;;;;;;;9.50;2.80;;;;;;;14.41;52.17;99985.05;108092;1288;23733;-61
2023/04/30 03:47:55;;;;;;;5.30;2.20;;;;;;;14.35;52.28;99985.97;108127;1288;22052;-60
2023/04/30 03:50:21;;;;;;;10.70;2.50;;;;;;;14.34;51.55;99986.54;108164;1288;21982;-60
2023/04/30 03:52:46;;;;;;;5.50;2.10;;;;;;;14.40;51.05;99991.06;108148;1288;21989;-60
2023/04/30 03:55:12;;;;;;;10.50;3.60;;;;;;;14.45;51.56;99989.16;108198;1288;21989;-60
2023/04/30 03:57:39;;;;;;;8.90;2.30;;;;;;;14.45;51.80;99987.20;108151;1288;22000;-60
2023/04/30 04:00:09;;;;;;;7.20;2.70;;;;;;;14.45;51.40;99988.61;108102;1288;21992;-60
2023/04/30 04:02:35;;;;;;;5.80;2.30;;;;;;;14.46;51.34;99985.06;108168;1288;21989;-61
2023/04/30 04:05:02;;;;;;;6.00;2.60;;;;;;;14.44;51.25;99985.98;108022;1287;21988;-61
2023/04/30 04:07:28;;;;;;;4.20;2.20;;;;;;;14.45;51.19;99988.64;108039;1288;21997;-60
2023/04/30 04:09:53;;;;;;;7.80;2.30;;;;;;;14.44;51.44;99989.01;108085;1288;21989;-62
2023/04/30 04:12:19;;;;;;;4.80;2.00;;;;;;;14.40;51.46;99985.94;108126;1288;21990;-61
2023/04/30 04:14:44;;;;;;;6.50;2.40;;;;;;;14.43;51.61;99988.34;108089;1288;21991;-62
2023/04/30 04:17:10;;;;;;;5.50;2.50;;;;;;;14.46;51.34;99987.69;108140;1288;21986;-62
2023/04/30 04:19:36;;;;;;;4.40;1.90;;;;;;;14.46;51.62;99985.75;108113;1288;21999;-60
2023/04/30 04:22:01;;;;;;;7.60;2.20;;;;;;;14.46;51.29;99983.28;108065;1288;21997;-62
2023/04/30 04:24:28;;;;;;;4.80;2.20;;;;;;;14.47;51.73;99980.07;108111;1288;21995;-62
2023/04/30 04:26:54;;;;;;;4.00;2.20;;;;;;;14.45;51.91;99980.33;108100;1288;21981;-62
2023/04/30 04:29:20;;;;;;;4.90;3.10;;;;;;;14.47;51.92;99983.27;108100;1286;21991;-62
2023/04/30 04:31:47;;;;;;;5.00;2.30;;;;;;;14.47;51.99;99981.86;107997;1288;22010;-63
2023/04/30 04:34:13;;;;;;;5.20;2.60;;;;;;;14.46;52.03;99980.83;108136;1288;22009;-62
2023/04/30 04:36:39;;;;;;;6.40;2.60;;;;;;;14.47;52.00;99980.08;108013;1288;21998;-63
2023/04/30 04:39:05;;;;;;;4.90;2.00;;;;;;;14.49;51.87;99981.59;108122;1288;21998;-63
2023/04/30 04:41:37;;;;;;;4.00;2.00;;;;;;;14.53;51.36;99984.45;108113;1288;22001;-62
2023/04/30 04:44:03;;;;;;;3.50;2.20;;;;;;;14.60;51.31;99982.45;108115;1288;21987;-64
2023/04/30 04:46:30;;;;;;;7.90;2.20;;;;;;;14.64;51.58;99984.08;108140;1288;22061;-63
2023/04/30 04:48:59;;;;;;;4.10;2.10;;;;;;;14.65;51.43;99983.88;108141;1288;21990;-63
2023/04/30 04:51:25;;;;;;;5.80;2.30;;;;;;;14.63;51.81;99985.54;108093;1288;22000;-63
2023/04/30 04:53:51;;;;;;;6.50;2.20;;;;;;;14.62;51.38;99985.19;108134;1288;21993;-62
2023/04/30 04:56:16;;;;;;;4.20;2.30;;;;;;;14.63;51.85;99985.00;108093;1288;21988;-62
2023/04/30 04:58:43;;;;;;;5.40;2.50;;;;;;;14.62;51.54;99988.38;108128;1288;22030;-62
2023/04/30 05:01:09;;;;;;;4.80;2.10;;;;;;;14.61;51.45;99989.30;108143;1288;21984;-61
2023/04/30 05:03:35;;;;;;;3.90;2.00;;;;;;;14.61;51.43;99988.94;108111;1288;21987;-62
2023/04/30 05:06:05;;;;;;;4.50;2.20;;;;;;;14.57;51.74;99991.02;108082;1288;21987;-63
2023/04/30 05:08:30;;;;;;;4.00;2.10;;;;;;;14.55;51.91;99990.41;108166;1288;23742;-62
2023/04/30 05:10:56;;;;;;;4.20;2.50;;;;;;;14.52;51.50;99990.49;108113;1288;23760;-62
2023/04/30 05:13:21;;;;;;;3.60;1.90;;;;;;;14.51;51.53;99986.64;108109;1288;21993;-62
2023/04/30 05:15:51;;;;;;;5.30;1.80;;;;;;;14.51;51.43;99990.72;108094;1288;21986;-63
2023/04/30 05:18:16;;;;;;;6.40;2.50;;;;;;;14.51;51.88;99991.60;107897;1288;21989;-61
2023/04/30 05:20:42;;;;;;;4.70;2.60;;;;;;;14.50;51.76;99989.86;108100;1288;21992;-62
2023/04/30 05:23:07;;;;;;;4.90;2.50;;;;;;;14.50;51.88;99993.40;108085;1288;21988;-62
2023/04/30 05:25:34;;;;;;;5.60;2.10;;;;;;;14.48;51.83;99994.01;108127;1288;22238;-63
2023/04/30 05:28:00;;;;;;;10.80;2.40;;;;;;;14.46;52.10;99993.02;108149;1288;21990;-62
2023/04/30 05:30:26;;;;;;;5.50;2.20;;;;;;;14.45;51.99;99992.69;108144;1288;21989;-62
2023/04/30 05:32:52;;;;;;;6.40;2.40;;;;;;;14.44;51.94;99994.64;107887;1288;22452;-62
2023/04/30 05:35:18;;;;;;;6.20;2.10;;;;;;;14.45;51.55;99998.15;108163;1288;21985;-63
2023/04/30 05:37:44;;;;;;;6.00;2.60;;;;;;;14.50;51.97;99999.02;108123;1281;21981;-63
2023/04/30 05:40:11;;;;;;;6.20;2.60;;;;;;;14.54;51.97;100001.02;108135;1288;21991;-62
2023/04/30 05:42:39;;;;;;;4.00;2.30;;;;;;;14.56;52.02;100001.30;108130;1288;22093;-62
2023/04/30 05:45:07;;;;;;;5.30;2.20;;;;;;;14.58;52.35;100000.18;108172;1288;21992;-63
2023/04/30 05:47:34;;;;;;;8.10;2.10;;;;;;;14.60;52.22;100002.22;108139;1288;22224;-61
2023/04/30 05:50:00;;;;;;;4.80;2.00;;;;;;;14.62;52.38;100001.10;108114;1288;22458;-62
2023/04/30 05:52:26;;;;;;;5.90;2.00;;;;;;;14.63;52.88;100003.90;108078;1288;21997;-62
2023/04/30 05:54:52;;;;;;;5.70;2.40;;;;;;;14.63;53.04;100003.54;108139;1288;22060;-63
2023/04/30 05:57:18;;;;;;;4.30;2.10;;;;;;;14.63;53.07;100006.34;108095;1288;21990;-62
2023/04/30 05:59:44;;;;;;;5.70;2.50;;;;;;;14.63;52.83;100010.23;108123;1288;21996;-62
2023/04/30 06:02:09;;;;;;;4.60;2.10;;;;;;;14.66;52.79;100011.73;108131;1288;22818;-62
2023/04/30 06:04:35;;;;;;;6.30;2.10;;;;;;;14.71;52.86;100014.58;108129;1288;21998;-63
2023/04/30 06:07:01;;;;;;;5.70;2.30;;;;;;;14.73;52.77;100014.35;107912;1288;22023;-62
2023/04/30 06:09:26;;;;;;;8.90;2.40;;;;;;;14.75;52.60;100015.70;108119;1288;21975;-62
2023/04/30 06:11:52;;;;;;;3.40;2.20;;;;;;;14.75;53.06;100016.92;108126;1276;23076;-62
2023/04/30 06:14:18;;;;;;;4.20;2.40;;;;;;;14.76;52.75;100015.12;108131;1288;21994;-62
2023/04/30 06:16:44;;;;;;;4.80;2.20;;;;;;;14.79;52.82;100016.09;107936;1288;22001;-62
2023/04/30 06:19:10;;;;;;;4.80;2.80;;;;;;;14.80;52.68;100017.27;108023;1287;151732;-62
2023/04/30 06:21:36;;;;;;;18.60;9.90;;;;;;;14.81;52.91;100020.94;108121;1288;21990;-63
2023/04/30 06:24:02;;;;;;;7.20;5.00;;;;;;;14.79;52.83;100015.70;108107;1288;21989;-62
2023/04/30 06:26:28;;;;;;;6.70;3.30;;;;;;;14.79;52.92;100014.13;108180;1288;21986;-63
2023/04/30 06:28:53;;;;;;;5.30;2.80;;;;;;;14.80;52.64;100015.32;108117;1287;22102;-62
2023/04/30 06:31:20;;;;;;;6.10;3.10;;;;;;;14.80;52.85;100013.92;108099;1288;22046;-62
2023/04/30 06:33:45;;;;;;;7.50;2.80;;;;;;;14.80;52.82;100018.33;108113;1288;21993;-62
2023/04/30 06:36:11;;;;;;;4.60;2.80;;;;;;;14.80;52.70;100019.92;108112;1288;21998;-62
2023/04/30 06:38:36;;;;;;;3.40;2.00;;;;;;;14.79;52.81;100020.84;108100;1288;21964;-62
2023/04/30 06:41:02;;;;;;;5.70;2.20;;;;;;;14.79;52.99;100017.66;108129;1288;21992;-62
2023/04/30 06:43:28;;;;;;;3.80;1.90;;;;;;;14.80;52.93;100019.04;108120;1288;22454;-62
2023/04/30 06:45:53;;;;;;;4.60;2.10;;;;;;;14.78;53.13;100020.69;107884;1288;22463;-62
2023/04/30 06:48:19;;;;;;;5.20;2.40;;;;;;;14.77;53.35;100021.09;108119;1288;22458;-61
2023/04/30 06:50:45;;;;;;;5.00;2.60;;;;;;;14.80;53.36;100021.52;107881;1288;21986;-62
2023/04/30 06:53:11;;;;;;;4.70;3.50;;;;;;;14.83;53.38;100018.03;108097;1288;21998;-62
2023/04/30 06:55:37;;;;;;;5.50;2.80;;;;;;;14.83;54.07;100017.48;108108;1288;21983;-63
2023/04/30 06:58:04;;;;;;;3.70;2.20;;;;;;;14.85;53.18;100015.69;108202;1288;21991;-62
2023/04/30 07:00:30;;;;;;;5.20;2.40;;;;;;;14.90;53.13;100020.98;108145;1288;21997;-62
2023/04/30 07:02:58;;;;;;;5.40;2.30;;;;;;;14.98;53.33;100026.02;108096;1288;21999;-62
2023/04/30 07:05:24;;;;;;;3.50;2.00;;;;;;;15.04;53.13;100024.55;108115;1288;21953;-62
2023/04/30 07:07:49;;;;;;;4.10;2.10;;;;;;;15.08;53.24;100026.33;108111;1288;21988;-62
2023/04/30 07:10:16;;;;;;;4.40;1.80;;;;;;;15.11;53.78;100027.11;108113;1288;22000;-64
2023/04/30 07:12:41;;;;;;;4.80;2.10;;;;;;;15.13;53.77;100025.81;108148;1288;21990;-62
2023/04/30 07:15:07;;;;;;;3.30;2.20;;;;;;;15.13;53.69;100025.45;108105;1287;21989;-62
2023/04/30 07:17:34;;;;;;;4.00;2.20;;;;;;;15.10;53.98;100028.90;108123;1288;21987;-62
2023/04/30 07:19:59;;;;;;;4.20;2.20;;;;;;;15.17;53.85;100027.09;108103;1288;22024;-62
2023/04/30 07:22:26;;;;;;;4.00;2.10;;;;;;;15.17;53.87;100024.77;108137;1288;24320;-62
2023/04/30 07:24:52;;;;;;;6.70;3.20;;;;;;;15.20;53.59;100024.14;108166;1288;21997;-62
2023/04/30 07:27:17;;;;;;;5.10;2.20;;;;;;;15.21;54.47;100027.12;108120;1288;23778;-63
2023/04/30 07:29:43;;;;;;;8.00;2.10;;;;;;;15.25;54.56;100024.13;108084;1288;23647;-62
2023/04/30 07:32:09;;;;;;;4.60;2.10;;;;;;;15.25;54.20;100023.77;108108;1288;22048;-61
2023/04/30 07:34:35;;;;;;;4.80;2.10;;;;;;;15.25;54.09;100023.09;108109;1288;21994;-62
2023/04/30 07:37:01;;;;;;;4.10;2.00;;;;;;;15.27;54.17;100023.16;108115;1288;21993;-63
2023/04/30 07:39:28;;;;;;;4.50;1.90;;;;;;;15.29;54.55;100023.10;108126;1288;21993;-62
2023/04/30 07:41:53;;;;;;;3.50;2.10;;;;;;;15.29;54.10;100027.33;108165;1288;21998;-62
2023/04/30 07:44:20;;;;;;;4.80;2.00;;;;;;;15.33;54.24;100024.88;108109;1288;21989;-62
2023/04/30 07:46:46;;;;;;;4.50;1.80;;;;;;;15.38;54.49;100029.69;108101;1288;21993;-61
2023/04/30 07:49:11;;;;;;;3.90;2.30;;;;;;;15.44;54.62;100029.06;108097;1288;21997;-62
2023/04/30 07:51:37;;;;;;;3.90;1.80;;;;;;;15.52;54.72;100023.64;108144;1288;22033;-62
2023/04/30 07:54:03;;;;;;;3.30;2.00;;;;;;;15.53;54.42;100025.21;107917;1288;21993;-62
2023/04/30 07:56:29;;;;;;;2.70;1.70;;;;;;;15.54;54.08;100025.70;108113;1288;21997;-63
2023/04/30 07:58:57;;;;;;;3.80;2.10;;;;;;;15.55;54.14;100027.59;108126;1288;21990;-62
2023/04/30 08:01:23;;;;;;;7.30;3.20;;;;;;;15.56;54.43;100024.57;108125;1288;21986;-63
2023/04/30 08:03:49;;;;;;;6.00;2.90;;;;;;;15.57;54.27;100026.47;108084;1288;21993;-62
2023/04/30 08:06:14;;;;;;;4.70;2.50;;;;;;;15.60;54.31;100023.88;108108;1288;21993;-62
2023/04/30 08:08:40;;;;;;;4.60;2.80;;;;;;;15.67;54.19;100023.77;108103;1288;22069;-62
2023/04/30 08:11:06;;;;;;;3.60;2.20;;;;;;;15.74;54.02;100023.31;108130;1288;21992;-64
2023/04/30 08:13:31;;;;;;;4.70;2.00;;;;;;;15.81;54.47;100025.02;108103;1288;21981;-62
2023/04/30 08:15:57;;;;;;;4.50;2.00;;;;;;;15.81;54.18;100026.58;107843;1288;22028;-63
2023/04/30 08:18:23;;;;;;;3.40;2.00;;;;;;;15.86;54.04;100023.96;108142;1288;21985;-61
2023/04/30 08:20:48;;;;;;;4.00;2.00;;;;;;;15.95;54.54;100021.48;108118;1283;21996;-64
2023/04/30 08:23:15;;;;;;;2.60;1.50;;;;;;;16.01;55.02;100021.94;108123;1288;21994;-62
2023/04/30 08:25:41;;;;;;;5.00;2.10;;;;;;;16.00;54.82;100026.06;108104;1288;22146;-62
2023/04/30 08:28:07;;;;;;;3.00;1.80;;;;;;;16.01;54.58;100026.70;108103;1286;22456;-63
2023/04/30 08:30:32;;;;;;;4.00;2.30;;;;;;;16.04;54.35;100028.02;108114;1288;21983;-63
2023/04/30 08:32:58;;;;;;;3.90;2.20;;;;;;;16.06;54.90;100029.19;108135;1288;21999;-62
2023/04/30 08:35:24;;;;;;;6.10;2.30;;;;;;;16.10;54.98;100030.77;108093;1288;21988;-63
2023/04/30 08:37:50;;;;;;;4.60;2.30;;;;;;;16.12;54.14;100031.07;107894;1288;22001;-63
2023/04/30 08:40:16;;;;;;;3.50;1.90;;;;;;;16.17;53.94;100032.97;108084;1286;21998;-62
2023/04/30 08:42:45;;;;;;;3.20;1.90;;;;;;;16.14;54.71;100029.90;108187;1288;21994;-62
2023/04/30 08:45:12;;;;;;;4.60;1.90;;;;;;;16.13;54.56;100030.11;108176;1288;23049;-63
2023/04/30 08:47:37;;;;;;;7.00;1.90;;;;;;;16.19;54.53;100026.34;108163;1288;21995;-62
2023/04/30 08:50:04;;;;;;;3.20;2.00;;;;;;;16.31;53.76;100025.30;107960;1288;22005;-63
2023/04/30 08:52:30;;;;;;;5.00;2.00;;;;;;;16.36;54.03;100024.40;108112;1288;21993;-62
2023/04/30 08:54:56;;;;;;;4.40;1.90;;;;;;;16.39;53.42;100021.11;107654;1288;23719;-62
2023/04/30 08:57:22;;;;;;;4.30;1.90;;;;;;;16.28;54.22;100023.33;108129;1288;21969;-63
2023/04/30 08:59:47;;;;;;;7.60;2.40;;;;;;;16.26;54.16;100021.65;108101;1288;21998;-64
2023/04/30 09:02:13;;;;;;;5.20;2.30;;;;;;;16.26;54.35;100021.13;108088;1288;21982;-62
2023/04/30 09:04:38;;;;;;;3.10;2.10;;;;;;;16.29;53.93;100021.70;108098;1288;21997;-61
2023/04/30 09:07:05;;;;;;;3.70;1.80;;;;;;;16.30;54.25;100024.61;108074;1288;21994;-65
2023/04/30 09:09:36;;;;;;;3.00;1.90;;;;;;;16.31;54.21;100022.64;107827;1288;21991;-62
2023/04/30 09:12:14;;;;;;;4.40;2.00;;;;;;;16.27;54.07;100022.48;108178;1288;22005;-61
2023/04/30 09:14:40;;;;;;;4.00;1.90;;;;;;;16.23;53.38;100026.70;108152;1288;21997;-62
2023/04/30 09:17:07;;;;;;;3.50;2.20;;;;;;;16.21;53.36;100026.79;108117;1288;21986;-61
2023/04/30 09:19:33;;;;;;;5.20;2.40;;;;;;;16.20;53.11;100026.81;108131;1288;22001;-62
2023/04/30 09:22:21;;;;;;;5.10;3.20;;;;;;;16.20;53.06;100025.95;108083;1288;21995;-62
2023/04/30 09:24:48;;;;;;;9.00;5.30;;;;;;;16.20;53.05;100020.80;107912;1288;22000;-61
2023/04/30 09:27:18;;;;;;;5.40;4.10;;;;;;;16.19;53.21;100019.95;108115;1288;21987;-62
2023/04/30 09:29:45;;;;;;;28.90;25.00;;;;;;;16.21;53.49;100021.67;108094;1288;21989;-64
2023/04/30 09:32:10;;;;;;;7.90;5.70;;;;;;;16.22;53.94;100022.35;107799;1288;21999;-63
2023/04/30 09:34:37;;;;;;;6.50;3.70;;;;;;;16.14;53.92;100020.17;107794;1288;22850;-61
2023/04/30 09:37:03;;;;;;;4.20;2.40;;;;;;;16.10;53.33;100019.99;108097;1284;21990;-62
2023/04/30 09:39:28;;;;;;;4.10;2.10;;;;;;;16.09;53.77;100020.92;107777;1288;22002;-61
2023/04/30 09:42:07;;;;;;;7.30;2.70;;;;;;;16.00;53.74;100018.96;108046;1288;21992;-64
2023/04/30 09:44:36;;;;;;;5.10;2.40;;;;;;;16.02;53.42;100021.37;108111;1288;21990;-63
2023/04/30 09:47:02;;;;;;;3.80;2.30;;;;;;;16.06;53.90;100025.11;108111;1288;21994;-62
2023/04/30 09:49:27;;;;;;;4.30;2.10;;;;;;;16.07;54.37;100028.60;108095;1288;21995;-62
2023/04/30 09:51:55;;;;;;;4.10;2.60;;;;;;;16.13;54.02;100029.61;108070;1288;21999;-63
2023/04/30 09:54:25;;;;;;;4.70;2.70;;;;;;;16.16;54.57;100031.05;108106;1288;24404;-61
2023/04/30 09:56:55;;;;;;;4.20;2.30;;;;;;;16.21;54.60;100028.58;108122;1288;22447;-62
2023/04/30 09:59:21;;;;;;;3.70;2.30;;;;;;;16.25;54.25;100028.39;108136;1288;21993;-62
2023/04/30 10:01:47;;;;;;;4.00;2.20;;;;;;;16.30;54.51;100027.47;108135;1288;22007;-63
2023/04/30 10:04:12;;;;;;;4.20;1.90;;;;;;;16.38;54.18;100030.67;107793;1288;21998;-63
2023/04/30 10:06:38;;;;;;;7.00;2.30;;;;;;;16.51;54.38;100028.22;107898;1288;21980;-63
2023/04/30 10:09:04;;;;;;;4.50;2.40;;;;;;;16.63;54.54;100021.84;107756;1288;22664;-63
2023/04/30 10:11:29;;;;;;;4.20;2.30;;;;;;;16.74;53.67;100024.02;107869;1288;21987;-63
2023/04/30 10:14:02;;;;;;;4.20;1.90;;;;;;;16.80;53.17;100023.92;108104;1288;21997;-62
2023/04/30 10:16:41;;;;;;;5.30;1.80;;;;;;;16.85;52.61;100024.60;108124;1288;22160;-62
2023/04/30 10:19:17;;;;;;;4.90;1.80;;;;;;;16.88;51.83;100023.05;108128;1288;21994;-61
2023/04/30 10:21:45;;;;;;;5.80;2.40;;;;;;;16.96;52.26;100028.23;108162;1288;21993;-62
2023/04/30 10:24:12;;;;;;;5.60;2.20;;;;;;;17.03;52.46;100031.31;108117;1288;21993;-60
2023/04/30 10:26:38;;;;;;;5.40;1.80;;;;;;;17.12;52.34;100030.04;107941;1288;23636;-61
2023/04/30 10:29:05;;;;;;;3.00;1.90;;;;;;;17.19;51.58;100034.16;107982;1288;23061;-61
2023/04/30 10:31:31;;;;;;;4.70;1.60;;;;;;;17.24;51.34;100036.03;107857;1288;21995;-61
2023/04/30 10:34:19;;;;;;;8.20;2.00;;;;;;;17.27;51.07;100037.13;108057;1288;22004;-61
2023/04/30 10:36:49;;;;;;;4.80;2.00;;;;;;;17.26;50.57;100041.45;108024;1288;23647;-60
2023/04/30 10:39:21;;;;;;;5.20;1.70;;;;;;;17.19;49.66;100032.37;108058;1288;21999;-59
2023/04/30 10:41:47;;;;;;;3.60;1.70;;;;;;;17.21;49.78;100035.78;108224;1288;23743;-60
2023/04/30 10:44:14;;;;;;;2.40;1.20;;;;;;;17.19;49.48;100037.34;108042;1288;21995;-59
2023/04/30 10:46:39;;;;;;;2.90;1.80;;;;;;;17.18;49.05;100034.55;107859;1288;22001;-60
2023/04/30 10:49:05;;;;;;;5.50;1.70;;;;;;;17.07;48.55;100035.19;107777;1288;22004;-60
2023/04/30 10:51:47;;;;;;;3.00;1.80;;;;;;;17.04;48.82;100031.61;108070;1288;21987;-61
2023/04/30 10:54:18;;;;;;;2.80;1.40;;;;;;;17.00;49.20;100026.47;108106;1288;24334;-60
2023/04/30 10:56:45;;;;;;;3.50;1.70;;;;;;;16.99;49.14;100020.31;107999;1288;21987;-60
2023/04/30 10:59:11;;;;;;;3.50;1.70;;;;;;;17.14;49.31;100023.73;108063;1288;21998;-60
2023/04/30 11:01:53;;;;;;;3.40;2.00;;;;;;;17.20;48.80;100021.35;108193;1288;22026;-60
2023/04/30 11:04:19;;;;;;;4.50;1.80;;;;;;;17.13;48.64;100018.27;108061;1288;21992;-61
2023/04/30 11:06:51;;;;;;;4.80;1.70;;;;;;;17.25;48.90;100017.38;108016;1288;21990;-61
2023/04/30 11:09:17;;;;;;;20.40;16.20;;;;;;;17.47;48.72;100018.86;108023;1288;21999;-60
2023/04/30 11:11:49;;;;;;;23.90;19.10;;;;;;;17.58;48.76;100015.87;108041;1288;22049;-59
2023/04/30 11:14:19;;;;;;;35.90;31.90;;;;;;;17.56;48.29;100016.64;108103;1288;21992;-60
2023/04/30 11:16:48;;;;;;;36.60;31.50;;;;;;;17.73;48.14;100014.59;108018;1288;21989;-60
2023/04/30 11:19:13;;;;;;;12.10;10.40;;;;;;;17.81;47.44;100012.45;108169;1288;22001;-60
2023/04/30 11:22:04;;;;;;;6.50;4.70;;;;;;;17.85;47.52;100008.52;107833;1288;21994;-59